Time;durP1;ratioP1;P1;durP2;ratioP2;P2;SDS_P1;SDS_P2;PMS_P1;PMS_P2;Temp;Humidity;BMP_temperature;BMP_pressure;BME280_temperature;BME280_humidity;BME280_pressure;Samples;Min_cycle;Max_cycle;Signal;HPM_P1;HPM_P2
2021/08/02 00:01:39;;;;;;;;;;;;;;;22.77;29.03;97448.00;5061173;28;869;-78
2021/08/02 00:04:05;;;;;;;;;;;;;;;22.85;29.02;97449.31;5061369;28;813;-78
2021/08/02 00:06:50;;;;;;;;;;;;;;;22.82;28.89;97444.56;5044273;28;626;-78
2021/08/02 00:09:16;;;;;;;;;;;;;;;22.83;28.83;97446.13;5061338;28;706;-78
2021/08/02 00:11:45;;;;;;;;;;;;;;;23.00;28.46;97446.72;5043947;28;858;-78
2021/08/02 00:14:10;;;;;;;;;;;;;;;23.03;28.30;97445.75;5044020;28;661;-78
2021/08/02 00:16:37;;;;;;;;;;;;;;;22.82;28.27;97450.22;5043864;28;902;-78
2021/08/02 00:19:03;;;;;;;;;;;;;;;22.85;28.19;97446.47;5059891;28;1973;-78
2021/08/02 00:21:28;;;;;;;;;;;;;;;22.74;28.28;97443.28;5060976;28;937;-78
2021/08/02 00:23:54;;;;;;;;;;;;;;;22.92;28.31;97441.78;5061169;28;654;-78
2021/08/02 00:26:20;;;;;;;;;;;;;;;22.80;27.96;97443.44;5061150;28;621;-78
2021/08/02 00:28:45;;;;;;;;;;;;;;;22.69;28.05;97446.72;5043865;28;631;-78
2021/08/02 00:31:11;;;;;;;;;;;;;;;22.70;28.43;97439.78;5043757;28;614;-78
2021/08/02 00:33:37;;;;;;;;;;;;;;;22.71;28.10;97443.41;5043117;28;1175;-78
2021/08/02 00:36:16;;;;;;;;;;;;;;;22.59;28.11;97436.59;5060672;28;926;-78
2021/08/02 00:38:45;;;;;;;;;;;;;;;22.62;28.21;97435.63;5043568;28;1971;-78
2021/08/02 00:41:27;;;;;;;;;;;;;;;22.75;27.80;97432.72;5043563;28;635;-78
2021/08/02 00:43:59;;;;;;;;;;;;;;;22.64;28.15;97433.16;5060238;28;1174;-78
2021/08/02 00:46:31;;;;;;;;;;;;;;;22.74;27.92;97436.78;5060653;28;654;-78
2021/08/02 00:49:08;;;;;;;;;;;;;;;22.82;27.56;97421.84;5043472;28;885;-78
2021/08/02 00:51:37;;;;;;;;;;;;;;;22.76;27.56;97429.41;5043019;28;1057;-78
2021/08/02 00:54:03;;;;;;;;;;;;;;;22.74;27.55;97426.25;5060583;28;646;-77
2021/08/02 00:56:31;;;;;;;;;;;;;;;22.69;27.68;97426.88;5060582;28;693;-78
2021/08/02 00:58:58;;;;;;;;;;;;;;;22.74;27.45;97422.59;5060611;28;1898;-78
2021/08/02 01:01:24;;;;;;;;;;;;;;;22.70;27.84;97424.81;5043420;28;1158;-78
2021/08/02 01:03:49;;;;;;;;;;;;;;;22.77;27.57;97419.63;5042856;28;977;-78
2021/08/02 01:06:16;;;;;;;;;;;;;;;22.62;27.64;97418.63;5026806;28;1295;-78
2021/08/02 01:08:42;;;;;;;;;;;;;;;22.48;28.07;97414.31;5043055;28;834;-78
2021/08/02 01:11:09;;;;;;;;;;;;;;;22.60;27.78;97412.66;5043142;28;614;-78
2021/08/02 01:13:35;;;;;;;;;;;;;;;22.48;27.73;97407.84;5076283;28;1339;-78
2021/08/02 01:16:06;;;;;;;;;;;;;;;22.56;28.04;97412.00;5043105;28;1267;-78
2021/08/02 01:18:34;;;;;;;;;;;;;;;22.59;27.75;97425.25;5026596;28;2009;-78
2021/08/02 01:21:03;;;;;;;;;;;;;;;22.60;27.75;97423.97;5059840;28;887;-78
2021/08/02 01:23:29;;;;;;;;;;;;;;;22.54;27.57;97425.84;5042980;28;961;-78
2021/08/02 01:25:56;;;;;;;;;;;;;;;22.62;27.68;97419.41;5043590;28;1138;-78
2021/08/02 01:28:23;;;;;;;;;;;;;;;22.70;27.21;97425.59;5060170;28;657;-78
2021/08/02 01:30:54;;;;;;;;;;;;;;;22.65;27.40;97429.03;5059594;28;814;-78
2021/08/02 01:33:30;;;;;;;;;;;;;;;22.53;27.52;97421.41;5039741;28;995;-77
2021/08/02 01:36:01;;;;;;;;;;;;;;;22.49;27.82;97420.78;5040179;28;728;-78
2021/08/02 01:38:27;;;;;;;;;;;;;;;22.60;27.80;97415.47;5039593;28;1972;-78
2021/08/02 01:40:53;;;;;;;;;;;;;;;22.43;28.04;97426.25;5039442;28;658;-78
2021/08/02 01:43:19;;;;;;;;;;;;;;;22.55;27.82;97424.59;5023165;28;1276;-78
2021/08/02 01:46:07;;;;;;;;;;;;;;;22.53;28.18;97416.53;5039149;28;851;-78
2021/08/02 01:48:52;;;;;;;;;;;;;;;22.61;28.24;97419.88;5039157;28;1189;-78
2021/08/02 01:51:20;;;;;;;;;;;;;;;22.54;28.34;97414.50;5039916;28;695;-77
2021/08/02 01:54:05;;;;;;;;;;;;;;;22.56;28.28;97412.00;5039552;28;1273;-77
2021/08/02 01:56:35;;;;;;;;;;;;;;;22.56;28.12;97420.50;5040112;28;649;-78
2021/08/02 01:59:02;;;;;;;;;;;;;;;22.55;28.05;97424.59;5038950;28;1906;-77
2021/08/02 02:01:36;;;;;;;;;;;;;;;22.54;28.38;97423.81;5039640;28;865;-77
2021/08/02 02:04:02;;;;;;;;;;;;;;;22.61;28.17;97422.72;5039305;28;591;-77
2021/08/02 02:06:34;;;;;;;;;;;;;;;22.49;28.38;97421.56;5039134;28;1272;-78
2021/08/02 02:09:10;;;;;;;;;;;;;;;22.62;28.17;97418.63;5039752;28;637;-78
2021/08/02 02:11:47;;;;;;;;;;;;;;;22.65;28.12;97422.59;5039205;28;655;-78
2021/08/02 02:14:26;;;;;;;;;;;;;;;22.63;28.21;97420.19;5039533;28;957;-77
2021/08/02 02:16:53;;;;;;;;;;;;;;;22.64;28.01;97433.16;5039520;28;968;-77
2021/08/02 02:19:22;;;;;;;;;;;;;;;22.62;27.99;97430.75;5023251;28;1919;-78
2021/08/02 02:21:49;;;;;;;;;;;;;;;22.60;28.24;97429.66;5039710;28;657;-78
2021/08/02 02:24:16;;;;;;;;;;;;;;;22.54;28.19;97429.47;5038963;28;682;-78
2021/08/02 02:26:42;;;;;;;;;;;;;;;22.63;28.09;97432.31;5072446;28;1203;-78
2021/08/02 02:29:11;;;;;;;;;;;;;;;22.71;28.00;97432.84;5022631;28;1208;-78
2021/08/02 02:31:37;;;;;;;;;;;;;;;22.68;28.00;97433.78;5038714;28;887;-78
2021/08/02 02:34:03;;;;;;;;;;;;;;;22.61;28.18;97434.06;5038721;28;1210;-78
2021/08/02 02:36:29;;;;;;;;;;;;;;;22.56;28.10;97434.66;5039773;28;687;-78
2021/08/02 02:38:55;;;;;;;;;;;;;;;22.47;28.29;97434.63;5022529;28;1902;-78
2021/08/02 02:41:21;;;;;;;;;;;;;;;22.58;28.28;97434.97;5039256;28;856;-78
2021/08/02 02:43:50;;;;;;;;;;;;;;;22.58;28.14;97434.97;5041939;28;830;-78
2021/08/02 02:46:16;;;;;;;;;;;;;;;22.55;28.19;97441.59;5042312;28;802;-78
2021/08/02 02:48:43;;;;;;;;;;;;;;;22.57;28.24;97444.75;5043208;28;1384;-78
2021/08/02 02:51:09;;;;;;;;;;;;;;;22.57;28.18;97444.75;5042417;28;1166;-78
2021/08/02 02:53:35;;;;;;;;;;;;;;;22.57;28.23;97439.88;5042290;28;611;-79
2021/08/02 02:56:06;;;;;;;;;;;;;;;22.68;27.98;97438.66;5075724;28;1316;-78
2021/08/02 02:58:32;;;;;;;;;;;;;;;22.69;27.94;97434.56;5041889;28;1991;-78
2021/08/02 03:00:58;;;;;;;;;;;;;;;22.59;27.87;97440.22;5041788;28;880;-78
2021/08/02 03:03:24;;;;;;;;;;;;;;;22.51;28.10;97446.63;5042702;28;607;-78
2021/08/02 03:05:51;;;;;;;;;;;;;;;22.59;28.00;97447.94;5042071;28;673;-78
2021/08/02 03:08:18;;;;;;;;;;;;;;;22.67;27.94;97435.03;5059157;28;1177;-78
2021/08/02 03:10:47;;;;;;;;;;;;;;;22.66;27.98;97450.47;5025745;28;1217;-78
2021/08/02 03:13:13;;;;;;;;;;;;;;;22.53;28.03;97449.75;5058376;28;1224;-78
2021/08/02 03:15:38;;;;;;;;;;;;;;;22.49;28.35;97446.31;5042368;28;862;-78
2021/08/02 03:18:04;;;;;;;;;;;;;;;22.53;28.25;97449.75;5042239;28;1902;-76
2021/08/02 03:20:29;;;;;;;;;;;;;;;22.58;28.11;97452.00;5042569;28;681;-76
2021/08/02 03:23:00;;;;;;;;;;;;;;;22.55;28.35;97445.22;5042287;28;606;-76
2021/08/02 03:25:28;;;;;;;;;;;;;;;22.49;28.20;97457.66;5041676;28;611;-77
2021/08/02 03:27:55;;;;;;;;;;;;;;;22.50;28.32;97450.72;5041958;28;1069;-78
2021/08/02 03:30:21;;;;;;;;;;;;;;;22.54;28.25;97451.38;5041951;28;865;-77
2021/08/02 03:32:46;;;;;;;;;;;;;;;22.64;28.15;97444.50;5041289;28;1001;-78
2021/08/02 03:35:12;;;;;;;;;;;;;;;22.67;28.21;97442.75;5042233;28;591;-77
2021/08/02 03:37:37;;;;;;;;;;;;;;;22.71;28.11;97444.19;5041329;28;627;-77
2021/08/02 03:40:03;;;;;;;;;;;;;;;22.67;28.02;97449.22;5041148;28;1902;-78
2021/08/02 03:42:29;;;;;;;;;;;;;;;22.54;28.18;97457.03;5040959;28;937;-77
2021/08/02 03:44:54;;;;;;;;;;;;;;;22.64;28.19;97455.84;5041948;28;889;-76
2021/08/02 03:47:20;;;;;;;;;;;;;;;22.72;27.99;97456.31;5041325;28;848;-78
2021/08/02 03:49:46;;;;;;;;;;;;;;;22.66;28.14;97453.31;5041568;28;635;-78
2021/08/02 03:52:11;;;;;;;;;;;;;;;22.70;28.12;97450.34;5041099;28;642;-78
2021/08/02 03:54:37;;;;;;;;;;;;;;;22.65;28.14;97457.41;5041304;28;1314;-78
2021/08/02 03:57:02;;;;;;;;;;;;;;;22.53;28.16;97450.56;5041694;28;590;-77
2021/08/02 03:59:28;;;;;;;;;;;;;;;22.66;28.18;97453.31;5040915;28;1976;-77
2021/08/02 04:01:53;;;;;;;;;;;;;;;22.62;28.35;97446.97;5041287;28;904;-77
2021/08/02 04:04:19;;;;;;;;;;;;;;;22.57;28.15;97461.75;5041254;28;862;-77
2021/08/02 04:06:44;;;;;;;;;;;;;;;22.52;28.59;97459.53;5041596;28;997;-77
2021/08/02 04:09:11;;;;;;;;;;;;;;;22.54;28.32;97451.38;5041382;28;685;-77
2021/08/02 04:11:36;;;;;;;;;;;;;;;22.52;28.45;97459.53;5041393;28;623;-77
2021/08/02 04:14:02;;;;;;;;;;;;;;;22.56;28.25;97457.34;5041321;28;650;-77
2021/08/02 04:16:28;;;;;;;;;;;;;;;22.47;28.39;97457.28;5040413;28;965;-78
2021/08/02 04:18:53;;;;;;;;;;;;;;;22.60;28.49;97449.50;5041006;28;1973;-77
2021/08/02 04:21:19;;;;;;;;;;;;;;;22.58;28.50;97457.66;5041097;28;937;-77
2021/08/02 04:23:44;;;;;;;;;;;;;;;22.47;28.38;97457.28;5041519;28;659;-77
2021/08/02 04:26:12;;;;;;;;;;;;;;;22.50;28.77;97442.22;5041204;28;696;-77
2021/08/02 04:28:41;;;;;;;;;;;;;;;22.59;28.31;97447.94;5041103;28;658;-77
2021/08/02 04:31:06;;;;;;;;;;;;;;;22.49;28.53;97443.47;5039890;28;964;-77
2021/08/02 04:33:32;;;;;;;;;;;;;;;22.52;28.39;97442.53;5039829;28;1202;-77
2021/08/02 04:35:57;;;;;;;;;;;;;;;22.61;28.24;97440.53;5040792;28;1095;-77
2021/08/02 04:38:23;;;;;;;;;;;;;;;22.62;28.37;97446.97;5040963;28;1910;-77
2021/08/02 04:40:48;;;;;;;;;;;;;;;22.58;28.58;97446.31;5040881;28;662;-77
2021/08/02 04:43:14;;;;;;;;;;;;;;;22.54;28.50;97446.47;5040807;28;701;-77
2021/08/02 04:45:39;;;;;;;;;;;;;;;22.59;28.47;97445.09;5040555;28;929;-77
2021/08/02 04:48:04;;;;;;;;;;;;;;;22.66;28.59;97449.69;5040454;28;825;-77
2021/08/02 04:50:30;;;;;;;;;;;;;;;22.58;28.50;97441.44;5040614;28;992;-77
2021/08/02 04:52:55;;;;;;;;;;;;;;;22.61;28.51;97446.19;5040612;28;642;-77
2021/08/02 04:55:21;;;;;;;;;;;;;;;22.69;28.48;97446.72;5040499;28;666;-77
2021/08/02 04:57:46;;;;;;;;;;;;;;;22.58;28.72;97446.31;5040660;28;701;-77
2021/08/02 05:00:12;;;;;;;;;;;;;;;22.54;28.84;97448.53;5040107;28;1971;-77
2021/08/02 05:02:37;;;;;;;;;;;;;;;22.65;28.60;97454.56;5040139;28;785;-77
2021/08/02 05:05:03;;;;;;;;;;;;;;;22.68;28.61;97445.13;5039906;28;842;-77
2021/08/02 05:07:28;;;;;;;;;;;;;;;22.62;28.77;97452.66;5039724;28;670;-77
2021/08/02 05:09:54;;;;;;;;;;;;;;;22.66;28.78;97447.63;5040512;28;668;-77
2021/08/02 05:12:19;;;;;;;;;;;;;;;22.54;28.74;97442.88;5040440;28;689;-77
2021/08/02 05:14:46;;;;;;;;;;;;;;;22.48;28.74;97436.97;5040028;28;952;-77
2021/08/02 05:17:11;;;;;;;;;;;;;;;22.51;28.95;97436.06;5040022;28;925;-77
2021/08/02 05:19:37;;;;;;;;;;;;;;;22.52;28.99;97436.84;5040312;28;1911;-77
2021/08/02 05:22:02;;;;;;;;;;;;;;;22.52;29.07;97436.84;5039537;28;676;-77
2021/08/02 05:24:28;;;;;;;;;;;;;;;22.63;28.75;97437.22;5039536;28;702;-77
2021/08/02 05:26:53;;;;;;;;;;;;;;;22.55;29.04;97435.94;5040185;28;666;-77
2021/08/02 05:29:19;;;;;;;;;;;;;;;22.55;29.03;97435.94;5039911;28;990;-77
2021/08/02 05:31:44;;;;;;;;;;;;;;;22.72;28.87;97431.59;5039892;28;799;-77
2021/08/02 05:34:11;;;;;;;;;;;;;;;22.80;28.68;97432.91;5058240;28;1106;-77
2021/08/02 05:36:41;;;;;;;;;;;;;;;22.60;28.98;97429.66;5059903;28;661;-77
2021/08/02 05:39:06;;;;;;;;;;;;;;;22.57;28.90;97430.56;5059959;28;1997;-77
2021/08/02 05:41:32;;;;;;;;;;;;;;;22.56;28.79;97420.50;5060082;28;649;-77
2021/08/02 05:43:57;;;;;;;;;;;;;;;22.62;28.93;97419.41;5059660;28;936;-77
2021/08/02 05:46:23;;;;;;;;;;;;;;;22.72;28.60;97423.09;5059626;28;880;-77
2021/08/02 05:48:48;;;;;;;;;;;;;;;22.76;28.59;97429.41;5059776;28;988;-77
2021/08/02 05:51:13;;;;;;;;;;;;;;;22.72;28.65;97428.75;5060018;28;646;-77
2021/08/02 05:53:39;;;;;;;;;;;;;;;22.70;28.52;97434.13;5076196;28;1185;-77
2021/08/02 05:56:04;;;;;;;;;;;;;;;22.55;29.12;97424.59;5060048;28;638;-77
2021/08/02 05:58:30;;;;;;;;;;;;;;;22.54;28.93;97428.69;5059447;28;1973;-77
2021/08/02 06:01:05;;;;;;;;;;;;;;;22.64;28.97;97430.31;5059488;28;916;-77
2021/08/02 06:03:30;;;;;;;;;;;;;;;22.69;28.87;97435.38;5059720;28;728;-77
2021/08/02 06:05:56;;;;;;;;;;;;;;;22.65;28.83;97433.94;5059808;28;636;-77
2021/08/02 06:08:21;;;;;;;;;;;;;;;22.64;28.90;97430.31;5059983;28;610;-77
2021/08/02 06:10:47;;;;;;;;;;;;;;;22.70;28.71;97436.94;5059718;28;658;-77
2021/08/02 06:13:12;;;;;;;;;;;;;;;22.62;29.15;97435.63;5042047;28;951;-77
2021/08/02 06:15:38;;;;;;;;;;;;;;;22.70;28.61;97436.94;5075591;28;1123;-77
2021/08/02 06:18:03;;;;;;;;;;;;;;;22.72;28.82;97437.25;5078022;28;1974;-77
2021/08/02 06:20:29;;;;;;;;;;;;;;;22.67;28.91;97432.19;5063411;28;697;-77
2021/08/02 06:22:57;;;;;;;;;;;;;;;22.74;28.78;97431.94;5063331;28;693;-77
2021/08/02 06:25:23;;;;;;;;;;;;;;;22.81;28.71;97430.84;5063310;28;642;-77
2021/08/02 06:27:51;;;;;;;;;;;;;;;22.69;28.88;97429.69;5063068;28;1050;-77
2021/08/02 06:30:19;;;;;;;;;;;;;;;22.61;28.81;97434.06;5063213;28;873;-77
2021/08/02 06:32:45;;;;;;;;;;;;;;;22.77;28.68;97430.97;5063078;28;1064;-77
2021/08/02 06:35:10;;;;;;;;;;;;;;;22.71;28.88;97427.19;5063061;28;642;-77
2021/08/02 06:37:39;;;;;;;;;;;;;;;22.77;28.71;97424.53;5063045;28;650;-77
2021/08/02 06:40:05;;;;;;;;;;;;;;;22.85;28.51;97425.81;5045820;28;2054;-77
2021/08/02 06:42:31;;;;;;;;;;;;;;;22.63;29.06;97420.19;5045372;28;1130;-78
2021/08/02 06:44:56;;;;;;;;;;;;;;;22.72;28.94;97427.97;5062628;28;894;-77
2021/08/02 06:47:22;;;;;;;;;;;;;;;22.78;28.89;97426.09;5062766;28;1000;-77
2021/08/02 06:49:47;;;;;;;;;;;;;;;22.72;29.02;97428.75;5045651;28;607;-77
2021/08/02 06:52:13;;;;;;;;;;;;;;;22.61;29.11;97429.19;5063317;28;606;-77
2021/08/02 06:54:39;;;;;;;;;;;;;;;22.64;29.07;97427.47;5063120;28;747;-77
2021/08/02 06:57:04;;;;;;;;;;;;;;;22.70;29.14;97428.44;5062436;28;976;-77
2021/08/02 06:59:30;;;;;;;;;;;;;;;22.73;28.82;97416.16;5062292;28;1971;-77
2021/08/02 07:01:56;;;;;;;;;;;;;;;22.65;29.28;97417.72;5062800;28;999;-77
2021/08/02 07:04:21;;;;;;;;;;;;;;;22.79;28.83;97427.66;5062661;28;658;-77
2021/08/02 07:06:47;;;;;;;;;;;;;;;22.86;28.85;97428.19;5062573;28;677;-77
2021/08/02 07:09:12;;;;;;;;;;;;;;;22.74;29.06;97417.75;5062610;28;657;-77
2021/08/02 07:11:38;;;;;;;;;;;;;;;22.65;29.29;97429.03;5062260;28;980;-77
2021/08/02 07:14:03;;;;;;;;;;;;;;;22.68;29.05;97422.44;5062058;28;940;-77
2021/08/02 07:16:29;;;;;;;;;;;;;;;22.73;29.03;97430.31;5062281;28;903;-77
2021/08/02 07:18:54;;;;;;;;;;;;;;;22.69;29.01;97417.53;5062283;28;1959;-77
2021/08/02 07:21:21;;;;;;;;;;;;;;;22.67;28.96;97425.75;5062902;28;657;-77
2021/08/02 07:23:46;;;;;;;;;;;;;;;22.73;29.31;97429.53;5062247;28;606;-77
2021/08/02 07:26:12;;;;;;;;;;;;;;;22.64;29.50;97433.16;5044714;28;834;-77
2021/08/02 07:28:37;;;;;;;;;;;;;;;22.71;29.36;97432.84;5061316;28;915;-77
2021/08/02 07:31:03;;;;;;;;;;;;;;;22.72;29.23;97427.97;5062006;28;984;-77
2021/08/02 07:33:29;;;;;;;;;;;;;;;22.75;29.08;97427.03;5061983;28;1114;-77
2021/08/02 07:35:55;;;;;;;;;;;;;;;22.81;29.30;97430.84;5062066;28;637;-77
2021/08/02 07:38:21;;;;;;;;;;;;;;;22.77;29.25;97430.97;5061960;28;1967;-77
2021/08/02 07:40:46;;;;;;;;;;;;;;;22.71;29.36;97438.53;5061566;28;1091;-77
2021/08/02 07:43:12;;;;;;;;;;;;;;;22.85;28.74;97437.94;5061639;28;846;-77
2021/08/02 07:45:37;;;;;;;;;;;;;;;22.63;29.44;97434.38;5061823;28;830;-77
2021/08/02 07:48:03;;;;;;;;;;;;;;;22.57;29.71;97434.19;5077809;28;1106;-77
2021/08/02 07:50:28;;;;;;;;;;;;;;;22.79;29.40;97434.13;5061744;28;611;-77
2021/08/02 07:52:54;;;;;;;;;;;;;;;22.59;29.58;97442.25;5061739;28;677;-77
2021/08/02 07:55:19;;;;;;;;;;;;;;;22.79;29.15;97439.81;5061373;28;986;-77
2021/08/02 07:57:45;;;;;;;;;;;;;;;22.79;29.25;97439.81;5061288;28;879;-77
2021/08/02 08:00:11;;;;;;;;;;;;;;;22.72;29.50;97434.44;5061401;28;1906;-77
2021/08/02 08:02:38;;;;;;;;;;;;;;;22.69;29.38;97429.69;5061565;28;606;-77
2021/08/02 08:05:03;;;;;;;;;;;;;;;22.80;29.46;97441.41;5061607;28;591;-77
2021/08/02 08:07:29;;;;;;;;;;;;;;;22.77;29.47;97438.69;5061358;28;645;-77
2021/08/02 08:09:54;;;;;;;;;;;;;;;22.76;29.31;97437.91;5061094;28;921;-77
2021/08/02 08:12:20;;;;;;;;;;;;;;;22.80;29.39;97430.06;5060994;28;885;-77
2021/08/02 08:14:45;;;;;;;;;;;;;;;22.80;29.29;97441.41;5061284;28;826;-77
2021/08/02 08:17:11;;;;;;;;;;;;;;;22.84;29.53;97427.84;5061244;28;586;-77
2021/08/02 08:19:36;;;;;;;;;;;;;;;22.86;29.58;97433.06;5061072;28;1910;-77
2021/08/02 08:22:02;;;;;;;;;;;;;;;22.84;29.34;97425.00;5061069;28;650;-77
2021/08/02 08:24:27;;;;;;;;;;;;;;;22.83;29.51;97426.28;5060919;28;846;-77
2021/08/02 08:26:53;;;;;;;;;;;;;;;22.86;29.58;97428.19;5060753;28;907;-77
2021/08/02 08:29:18;;;;;;;;;;;;;;;22.78;29.63;97421.22;5061232;28;944;-77
2021/08/02 08:31:44;;;;;;;;;;;;;;;22.81;29.49;97420.28;5043918;28;690;-77
2021/08/02 08:34:09;;;;;;;;;;;;;;;22.90;29.56;97415.91;5061067;28;1122;-77
2021/08/02 08:36:35;;;;;;;;;;;;;;;22.88;29.59;97419.22;5076755;28;1115;-77
2021/08/02 08:39:00;;;;;;;;;;;;;;;22.80;29.50;97413.03;5060249;28;1906;-77
2021/08/02 08:41:26;;;;;;;;;;;;;;;22.85;29.58;97403.13;5059831;28;826;-77
2021/08/02 08:43:52;;;;;;;;;;;;;;;22.83;29.66;97417.75;5043395;28;870;-77
2021/08/02 08:46:23;;;;;;;;;;;;;;;22.90;29.38;97410.25;5060888;28;659;-76
2021/08/02 08:48:49;;;;;;;;;;;;;;;22.83;29.61;97406.41;5060824;28;622;-77
2021/08/02 08:51:15;;;;;;;;;;;;;;;22.78;29.60;97407.03;5060593;28;614;-77
2021/08/02 08:53:43;;;;;;;;;;;;;;;22.78;29.85;97414.75;5042909;28;945;-77
2021/08/02 08:56:09;;;;;;;;;;;;;;;22.75;29.70;97399.47;5060208;28;884;-77
2021/08/02 08:58:35;;;;;;;;;;;;;;;22.77;29.69;97399.78;5060964;28;1975;-77
2021/08/02 09:01:01;;;;;;;;;;;;;;;22.83;29.68;97405.63;5060506;28;672;-77
2021/08/02 09:03:28;;;;;;;;;;;;;;;22.80;29.67;97384.69;5060493;28;724;-77
2021/08/02 09:06:03;;;;;;;;;;;;;;;22.77;30.02;97396.94;5043693;28;710;-77
2021/08/02 09:08:47;;;;;;;;;;;;;;;22.87;30.01;97400.59;5060072;28;972;-77
2021/08/02 09:11:16;;;;;;;;;;;;;;;22.86;29.80;97405.50;5059971;28;829;-77
2021/08/02 09:13:43;;;;;;;;;;;;;;;22.89;29.70;97403.78;5060261;28;630;-77
2021/08/02 09:16:11;;;;;;;;;;;;;;;22.81;30.06;97408.94;5060249;28;710;-76
2021/08/02 09:18:40;;;;;;;;;;;;;;;22.81;30.15;97405.31;5060281;28;1902;-77
2021/08/02 09:21:08;;;;;;;;;;;;;;;22.75;30.25;97401.53;5042993;28;746;-77
2021/08/02 09:23:34;;;;;;;;;;;;;;;22.82;30.03;97393.50;5059895;28;906;-77
2021/08/02 09:26:01;;;;;;;;;;;;;;;22.85;30.11;97392.56;5060168;28;858;-77
2021/08/02 09:28:26;;;;;;;;;;;;;;;22.84;29.95;97390.97;5060004;28;917;-77
2021/08/02 09:31:02;;;;;;;;;;;;;;;22.72;29.98;97397.56;5060111;28;649;-77
2021/08/02 09:33:43;;;;;;;;;;;;;;;22.80;29.88;97384.69;5059886;28;1128;-77
2021/08/02 09:36:09;;;;;;;;;;;;;;;22.90;29.93;97384.72;5060199;28;666;-77
2021/08/02 09:38:34;;;;;;;;;;;;;;;22.81;30.07;97389.09;5059591;28;1969;-77
2021/08/02 09:41:00;;;;;;;;;;;;;;;22.81;30.10;97386.25;5059659;28;921;-77
2021/08/02 09:43:26;;;;;;;;;;;;;;;22.74;30.19;97386.56;5059948;28;1023;-78
2021/08/02 09:45:55;;;;;;;;;;;;;;;22.87;29.99;97390.03;5043090;28;805;-77
2021/08/02 09:48:21;;;;;;;;;;;;;;;22.88;29.94;97385.97;5042714;28;729;-77
2021/08/02 09:50:47;;;;;;;;;;;;;;;22.77;30.05;97385.59;5042953;28;595;-77
2021/08/02 09:53:14;;;;;;;;;;;;;;;22.90;29.92;97387.53;5046191;28;912;-77
2021/08/02 09:55:40;;;;;;;;;;;;;;;22.92;29.96;97393.56;5063587;28;861;-77
2021/08/02 09:58:05;;;;;;;;;;;;;;;22.84;30.01;97390.97;5046684;28;858;-77
2021/08/02 10:00:32;;;;;;;;;;;;;;;22.84;29.94;97378.84;5063703;28;1886;-77
2021/08/02 10:02:58;;;;;;;;;;;;;;;22.88;29.92;97385.97;5046693;28;1002;-77
2021/08/02 10:05:24;;;;;;;;;;;;;;;22.88;29.96;97385.19;5063692;28;614;-77
2021/08/02 10:07:49;;;;;;;;;;;;;;;22.84;29.96;97385.28;5063438;28;1077;-77
2021/08/02 10:10:15;;;;;;;;;;;;;;;22.95;29.92;97386.94;5063344;28;960;-77
2021/08/02 10:12:41;;;;;;;;;;;;;;;22.77;30.24;97379.94;5046214;28;948;-77
2021/08/02 10:15:17;;;;;;;;;;;;;;;22.76;30.09;97372.69;5063504;28;635;-77
2021/08/02 10:17:49;;;;;;;;;;;;;;;22.82;30.03;97375.69;5046221;28;642;-77
2021/08/02 10:20:15;;;;;;;;;;;;;;;22.74;30.29;97380.88;5046097;28;1976;-77
2021/08/02 10:22:44;;;;;;;;;;;;;;;22.84;29.88;97378.84;5063121;28;957;-77
2021/08/02 10:25:10;;;;;;;;;;;;;;;22.94;30.06;97382.53;5063188;28;900;-76
2021/08/02 10:27:35;;;;;;;;;;;;;;;22.87;29.90;97378.69;5063300;28;935;-77
2021/08/02 10:30:01;;;;;;;;;;;;;;;22.91;29.90;97378.59;5045916;28;607;-77
2021/08/02 10:32:30;;;;;;;;;;;;;;;22.80;30.13;97379.00;5063106;28;1013;-77
2021/08/02 10:34:56;;;;;;;;;;;;;;;22.78;30.00;97375.81;5063214;28;674;-77
2021/08/02 10:37:30;;;;;;;;;;;;;;;22.85;30.07;97375.53;5062910;28;857;-78
2021/08/02 10:40:02;;;;;;;;;;;;;;;22.75;30.53;97376.78;5045735;28;1898;-78
2021/08/02 10:42:28;;;;;;;;;;;;;;;22.87;30.17;97377.91;5063316;28;785;-77
2021/08/02 10:44:56;;;;;;;;;;;;;;;22.93;29.90;97386.63;5062964;28;711;-77
2021/08/02 10:47:22;;;;;;;;;;;;;;;22.92;30.10;97380.16;5063001;28;642;-77
2021/08/02 10:49:48;;;;;;;;;;;;;;;22.85;29.86;97389.72;5045681;28;713;-77
2021/08/02 10:52:23;;;;;;;;;;;;;;;23.01;29.86;97387.91;5045275;28;851;-77
2021/08/02 10:54:49;;;;;;;;;;;;;;;22.93;29.64;97380.94;5045252;28;861;-77
2021/08/02 10:57:15;;;;;;;;;;;;;;;22.92;30.05;97376.53;5045558;28;933;-77
2021/08/02 10:59:40;;;;;;;;;;;;;;;22.72;30.06;97369.19;5062746;28;1906;-77
2021/08/02 11:02:09;;;;;;;;;;;;;;;22.68;30.20;97382.72;5062456;28;618;-77
2021/08/02 11:04:35;;;;;;;;;;;;;;;22.87;29.85;97375.84;5044923;28;677;-77
2021/08/02 11:07:01;;;;;;;;;;;;;;;22.90;29.97;97368.50;5062251;28;928;-77
2021/08/02 11:09:27;;;;;;;;;;;;;;;22.96;30.02;97375.13;5062322;28;897;-77
2021/08/02 11:12:02;;;;;;;;;;;;;;;21.22;30.18;97128.69;5045199;28;949;-77
2021/08/02 11:14:46;;;;;;;;;;;;;;;22.81;30.22;97363.56;5045584;28;828;-78
2021/08/02 11:17:16;;;;;;;;;;;;;;;22.91;29.97;97363.63;5062433;28;599;-78
2021/08/02 11:19:41;;;;;;;;;;;;;;;22.86;30.22;97360.09;5045180;28;1982;-78
2021/08/02 11:22:07;;;;;;;;;;;;;;;22.88;30.23;97368.94;5062106;28;916;-77
2021/08/02 11:24:49;;;;;;;;;;;;;;;22.86;30.18;97365.78;5044704;28;876;-77
2021/08/02 11:27:15;;;;;;;;;;;;;;;22.95;29.97;97372.75;5062327;28;725;-78
2021/08/02 11:29:40;;;;;;;;;;;;;;;22.87;29.94;97367.34;5062150;28;721;-78
2021/08/02 11:32:08;;;;;;;;;;;;;;;22.86;29.88;97362.94;5061888;28;954;-78
2021/08/02 11:34:34;;;;;;;;;;;;;;;22.87;29.97;97367.34;5062138;28;675;-78
2021/08/02 11:37:06;;;;;;;;;;;;;;;22.85;30.31;97375.53;5061862;28;830;-78
2021/08/02 11:39:32;;;;;;;;;;;;;;;22.83;30.23;97372.38;5061920;28;1905;-78
2021/08/02 11:42:07;;;;;;;;;;;;;;;22.98;29.75;97368.97;5062065;28;654;-78
2021/08/02 11:44:33;;;;;;;;;;;;;;;22.83;30.36;97366.69;5062057;28;626;-78
2021/08/02 11:46:59;;;;;;;;;;;;;;;22.87;30.13;97358.84;5061865;28;658;-78
2021/08/02 11:49:25;;;;;;;;;;;;;;;22.81;30.28;97355.03;5061835;28;749;-78
2021/08/02 11:51:50;;;;;;;;;;;;;;;22.88;29.87;97360.44;5044204;28;994;-77
2021/08/02 11:54:23;;;;;;;;;;;;;;;22.94;29.82;97366.28;5044156;28;829;-78
2021/08/02 11:56:48;;;;;;;;;;;;;;;22.91;29.77;97355.09;5061767;28;921;-77
2021/08/02 11:59:17;;;;;;;;;;;;;;;22.88;30.03;97351.94;5061481;28;1906;-78
2021/08/02 12:01:44;;;;;;;;;;;;;;;23.09;29.71;97352.28;5061860;28;685;-77
2021/08/02 12:04:09;;;;;;;;;;;;;;;22.86;30.06;97357.25;5061454;28;666;-78
2021/08/02 12:06:34;;;;;;;;;;;;;;;23.09;29.43;97349.44;5061066;28;1083;-77
2021/08/02 12:09:00;;;;;;;;;;;;;;;22.94;29.89;97348.47;5061298;28;835;-77
2021/08/02 12:11:25;;;;;;;;;;;;;;;22.82;30.26;97359.47;5061311;28;827;-78
2021/08/02 12:13:51;;;;;;;;;;;;;;;22.88;30.01;97357.59;5061243;28;594;-77
2021/08/02 12:16:27;;;;;;;;;;;;;;;22.94;30.06;97356.97;5061210;28;618;-77
2021/08/02 12:19:01;;;;;;;;;;;;;;;23.02;29.79;97356.22;5043814;28;1898;-78
2021/08/02 12:21:27;;;;;;;;;;;;;;;22.95;30.09;97356.53;5043830;28;897;-78
2021/08/02 12:24:05;;;;;;;;;;;;;;;22.88;30.12;97351.94;5060768;28;924;-78
2021/08/02 12:26:31;;;;;;;;;;;;;;;22.91;29.84;97357.94;5077203;28;1111;-78
2021/08/02 12:28:56;;;;;;;;;;;;;;;22.92;29.70;97353.84;5060948;28;663;-77
2021/08/02 12:31:23;;;;;;;;;;;;;;;22.93;30.06;97347.69;5061118;28;571;-78
2021/08/02 12:33:49;;;;;;;;;;;;;;;23.00;29.88;97346.59;5060761;28;1191;-78
2021/08/02 12:36:15;;;;;;;;;;;;;;;23.01;29.69;97340.47;5060646;28;1113;-78
2021/08/02 12:38:42;;;;;;;;;;;;;;;22.94;29.78;97342.81;5060568;28;1910;-77
2021/08/02 12:41:07;;;;;;;;;;;;;;;22.90;30.04;97342.97;5060829;28;847;-77
2021/08/02 12:43:33;;;;;;;;;;;;;;;23.00;30.01;97346.59;5061147;28;741;-78
2021/08/02 12:45:59;;;;;;;;;;;;;;;22.93;29.99;97344.06;5060684;28;693;-77
2021/08/02 12:48:24;;;;;;;;;;;;;;;22.83;30.22;97331.88;5060818;28;622;-77
2021/08/02 12:50:50;;;;;;;;;;;;;;;22.80;30.26;97330.78;5060587;28;989;-78
2021/08/02 12:53:15;;;;;;;;;;;;;;;22.93;30.00;97329.88;5060503;28;916;-77
2021/08/02 12:55:41;;;;;;;;;;;;;;;22.86;30.05;97326.06;5043328;28;1151;-77
2021/08/02 12:58:06;;;;;;;;;;;;;;;22.87;29.93;97330.47;5060462;28;685;-78
2021/08/02 13:00:31;;;;;;;;;;;;;;;22.93;29.93;97329.88;5060674;28;1959;-77
2021/08/02 13:02:57;;;;;;;;;;;;;;;22.86;29.64;97326.06;5060434;28;691;-77
2021/08/02 13:05:22;;;;;;;;;;;;;;;22.91;29.92;97329.56;5060195;28;921;-77